メインページ
METAR-TAF:

METAR-TAF

空港 :

フェリックス・ウフェ=ボワニ国際空港

アビジャン, コートジボワール

緯度: 05-15N, 経度: 003-56W, 海抜: 7m

現時点の気象観測

当レポートは27分前の01:00(UTC)に作成
西/南西の風 3kt
気温 28°C
湿度 84%
気圧 1013 hPa
視程: 8000m
高度1300ftの雲はほとんどない
高度4000ftの千切れ雲あり

METAR: DIAP 210100Z 25003KT 8000 FEW013 BKN040 28/25 Q1013 NOSIG

時間: 01:27 (01:27 UTC)

予報

当レポートは2時間12分前の23:15(UTC)に作成
予報は21日の 00時(UTC)から 22日の 06時(UTC)まで有効
南西の風 8kt
視程: 8000m
高度1200ftの雲は散在している
確率 40% :
21日の 04時(UTC)から 21日の 10時(UTC)まで一時的に
高度1000ftの千切れ雲あり
高度2000ftの雲はほとんどない, 積乱雲.
激しい雷雨
確率 30% :
21日の 05時(UTC)から 21日の 11時(UTC)まで一時的に
視程: 4000m
高度1000ftの千切れ雲あり
高度2000ftの雲はほとんどない, 積乱雲.
高度3000ftの千切れ雲あり
激しい雷雨, 雨
確率 40% :
21日の 14時(UTC)から 21日の 20時(UTC)まで一時的に
高度1200ftの千切れ雲あり
高度2000ftの雲はほとんどない, 積乱雲.
激しい雷雨
確率 30% :
22日の 02時(UTC)から 22日の 06時(UTC)まで一時的に
視程: 4000m
高度1000ftの千切れ雲あり
高度3000ftの千切れ雲あり

TAF: DIAP 202315Z 2100/2206 22008KT 8000 SCT012 PROB40 TEMPO 2104/2110 TS BKN010 FEW020CB PROB30 TEMPO 2105/2111 4000 TSRA BKN010 FEW020CB BKN030 PROB40 TEMPO 2114/2120 TS BKN012 FEW020CB PROB30 TEMPO 2202/2206 4000 RA BKN010 BKN030

4,000以上の空港の気象観測と天気予報(METAR報とTAF報)

利用可能な観測所は地図上に黄色い丸と赤い丸で示す。

丸の上にカーソルを重ねると観測所名を参照できる。

次にクリックすると気象観測と天気予報を参照できる。

マップの切り替え:黒色「×」印の緑ボタンをクリックして拡大、「-」印の緑ボタンをクリックして縮小、緑色の三角印をクリックして隣りの地図に切り替え


METAR-TAF: